sensor_id;sensor_type;location;lat;lon;timestamp;P1;durP1;ratioP1;P2;durP2;ratioP2
23680;SDS011;62915;50.832;4.462;2023-10-31T00:00:05;22.23;;;15.55;;
23680;SDS011;62915;50.832;4.462;2023-10-31T00:02:31;24.63;;;15.82;;
23680;SDS011;62915;50.832;4.462;2023-10-31T00:04:57;23.33;;;15.50;;
23680;SDS011;62915;50.832;4.462;2023-10-31T00:07:23;21.83;;;14.82;;
23680;SDS011;62915;50.832;4.462;2023-10-31T00:09:48;21.10;;;14.00;;
23680;SDS011;62915;50.832;4.462;2023-10-31T00:12:14;21.02;;;14.82;;
23680;SDS011;62915;50.832;4.462;2023-10-31T00:14:40;21.63;;;14.20;;
23680;SDS011;62915;50.832;4.462;2023-10-31T00:17:06;24.30;;;14.48;;
23680;SDS011;62915;50.832;4.462;2023-10-31T00:19:31;22.02;;;14.27;;
23680;SDS011;62915;50.832;4.462;2023-10-31T00:21:57;20.92;;;13.13;;
23680;SDS011;62915;50.832;4.462;2023-10-31T00:24:23;17.23;;;12.90;;
23680;SDS011;62915;50.832;4.462;2023-10-31T00:26:49;17.13;;;12.52;;
23680;SDS011;62915;50.832;4.462;2023-10-31T00:29:14;16.85;;;11.38;;
23680;SDS011;62915;50.832;4.462;2023-10-31T00:31:40;14.85;;;11.57;;
23680;SDS011;62915;50.832;4.462;2023-10-31T00:34:06;15.90;;;11.80;;
23680;SDS011;62915;50.832;4.462;2023-10-31T00:36:33;18.10;;;11.25;;
23680;SDS011;62915;50.832;4.462;2023-10-31T00:38:58;17.67;;;11.05;;
23680;SDS011;62915;50.832;4.462;2023-10-31T00:41:24;14.25;;;10.60;;
23680;SDS011;62915;50.832;4.462;2023-10-31T00:43:50;13.48;;;10.50;;
23680;SDS011;62915;50.832;4.462;2023-10-31T00:46:16;16.42;;;10.05;;
23680;SDS011;62915;50.832;4.462;2023-10-31T00:48:41;15.68;;;9.35;;
23680;SDS011;62915;50.832;4.462;2023-10-31T00:51:07;14.30;;;9.73;;
23680;SDS011;62915;50.832;4.462;2023-10-31T00:53:33;15.00;;;10.07;;
23680;SDS011;62915;50.832;4.462;2023-10-31T00:55:58;12.80;;;9.13;;
23680;SDS011;62915;50.832;4.462;2023-10-31T00:58:24;13.15;;;8.68;;
23680;SDS011;62915;50.832;4.462;2023-10-31T01:00:50;12.15;;;8.75;;
23680;SDS011;62915;50.832;4.462;2023-10-31T01:03:15;14.73;;;8.48;;
23680;SDS011;62915;50.832;4.462;2023-10-31T01:05:41;13.88;;;8.10;;
23680;SDS011;62915;50.832;4.462;2023-10-31T01:08:07;15.18;;;7.85;;
23680;SDS011;62915;50.832;4.462;2023-10-31T01:10:32;12.10;;;7.43;;
23680;SDS011;62915;50.832;4.462;2023-10-31T01:12:58;10.13;;;7.10;;
23680;SDS011;62915;50.832;4.462;2023-10-31T01:15:24;11.55;;;7.15;;
23680;SDS011;62915;50.832;4.462;2023-10-31T01:17:49;11.70;;;8.25;;
23680;SDS011;62915;50.832;4.462;2023-10-31T01:20:15;12.70;;;8.55;;
23680;SDS011;62915;50.832;4.462;2023-10-31T01:22:41;13.43;;;8.75;;
23680;SDS011;62915;50.832;4.462;2023-10-31T01:25:07;16.65;;;8.27;;
23680;SDS011;62915;50.832;4.462;2023-10-31T01:27:33;12.13;;;9.02;;
23680;SDS011;62915;50.832;4.462;2023-10-31T01:29:58;16.95;;;9.50;;
23680;SDS011;62915;50.832;4.462;2023-10-31T01:32:24;12.88;;;8.57;;
23680;SDS011;62915;50.832;4.462;2023-10-31T01:34:50;11.00;;;8.75;;
23680;SDS011;62915;50.832;4.462;2023-10-31T01:37:16;13.68;;;8.63;;
23680;SDS011;62915;50.832;4.462;2023-10-31T01:39:44;13.85;;;8.48;;
23680;SDS011;62915;50.832;4.462;2023-10-31T01:42:13;12.32;;;9.13;;
23680;SDS011;62915;50.832;4.462;2023-10-31T01:44:40;12.10;;;8.27;;
23680;SDS011;62915;50.832;4.462;2023-10-31T01:47:06;10.02;;;7.00;;
23680;SDS011;62915;50.832;4.462;2023-10-31T01:49:31;11.15;;;7.80;;
23680;SDS011;62915;50.832;4.462;2023-10-31T01:51:58;13.55;;;8.02;;
23680;SDS011;62915;50.832;4.462;2023-10-31T01:54:26;8.88;;;8.00;;
23680;SDS011;62915;50.832;4.462;2023-10-31T01:56:53;11.52;;;8.68;;
23680;SDS011;62915;50.832;4.462;2023-10-31T01:59:23;11.52;;;7.75;;
23680;SDS011;62915;50.832;4.462;2023-10-31T02:01:49;8.75;;;7.40;;
23680;SDS011;62915;50.832;4.462;2023-10-31T02:04:15;9.45;;;7.72;;
23680;SDS011;62915;50.832;4.462;2023-10-31T02:06:41;11.40;;;7.68;;
23680;SDS011;62915;50.832;4.462;2023-10-31T02:09:06;10.15;;;6.78;;
23680;SDS011;62915;50.832;4.462;2023-10-31T02:11:32;13.95;;;7.72;;
23680;SDS011;62915;50.832;4.462;2023-10-31T02:13:58;8.18;;;7.32;;
23680;SDS011;62915;50.832;4.462;2023-10-31T02:16:24;12.85;;;7.40;;
23680;SDS011;62915;50.832;4.462;2023-10-31T02:18:50;8.50;;;7.18;;
23680;SDS011;62915;50.832;4.462;2023-10-31T02:21:16;10.57;;;7.43;;
23680;SDS011;62915;50.832;4.462;2023-10-31T02:26:34;9.18;;;7.03;;
23680;SDS011;62915;50.832;4.462;2023-10-31T02:29:00;13.05;;;7.45;;
23680;SDS011;62915;50.832;4.462;2023-10-31T02:31:27;12.70;;;7.53;;
23680;SDS011;62915;50.832;4.462;2023-10-31T02:33:53;9.07;;;7.72;;
23680;SDS011;62915;50.832;4.462;2023-10-31T02:36:19;9.95;;;7.80;;
23680;SDS011;62915;50.832;4.462;2023-10-31T02:38:45;8.38;;;7.50;;
23680;SDS011;62915;50.832;4.462;2023-10-31T02:41:11;10.55;;;7.18;;
23680;SDS011;62915;50.832;4.462;2023-10-31T02:43:37;9.85;;;7.80;;
23680;SDS011;62915;50.832;4.462;2023-10-31T02:46:04;9.40;;;8.13;;
23680;SDS011;62915;50.832;4.462;2023-10-31T02:48:29;7.70;;;7.00;;
23680;SDS011;62915;50.832;4.462;2023-10-31T02:51:03;10.55;;;7.25;;
23680;SDS011;62915;50.832;4.462;2023-10-31T02:53:34;9.52;;;7.43;;
23680;SDS011;62915;50.832;4.462;2023-10-31T02:56:01;11.77;;;7.45;;
23680;SDS011;62915;50.832;4.462;2023-10-31T02:58:27;9.80;;;7.53;;
23680;SDS011;62915;50.832;4.462;2023-10-31T03:00:53;8.10;;;6.95;;
23680;SDS011;62915;50.832;4.462;2023-10-31T03:03:19;11.00;;;8.25;;
23680;SDS011;62915;50.832;4.462;2023-10-31T03:05:44;8.38;;;7.30;;
23680;SDS011;62915;50.832;4.462;2023-10-31T03:08:10;7.45;;;6.50;;
23680;SDS011;62915;50.832;4.462;2023-10-31T03:10:38;7.47;;;6.72;;
23680;SDS011;62915;50.832;4.462;2023-10-31T03:13:04;9.35;;;7.43;;
23680;SDS011;62915;50.832;4.462;2023-10-31T03:15:29;11.75;;;8.18;;
23680;SDS011;62915;50.832;4.462;2023-10-31T03:17:56;9.85;;;8.00;;
23680;SDS011;62915;50.832;4.462;2023-10-31T03:20:21;12.20;;;8.95;;
23680;SDS011;62915;50.832;4.462;2023-10-31T03:22:47;12.20;;;9.90;;
23680;SDS011;62915;50.832;4.462;2023-10-31T03:25:13;18.85;;;9.70;;
23680;SDS011;62915;50.832;4.462;2023-10-31T03:27:38;13.07;;;10.27;;
23680;SDS011;62915;50.832;4.462;2023-10-31T03:30:04;12.32;;;10.32;;
23680;SDS011;62915;50.832;4.462;2023-10-31T03:32:30;14.13;;;11.32;;
23680;SDS011;62915;50.832;4.462;2023-10-31T03:34:56;12.80;;;10.43;;
23680;SDS011;62915;50.832;4.462;2023-10-31T03:37:22;14.30;;;11.02;;
23680;SDS011;62915;50.832;4.462;2023-10-31T03:39:47;13.45;;;10.65;;
23680;SDS011;62915;50.832;4.462;2023-10-31T03:42:13;11.80;;;9.55;;
23680;SDS011;62915;50.832;4.462;2023-10-31T03:44:39;10.70;;;9.60;;
23680;SDS011;62915;50.832;4.462;2023-10-31T03:47:05;10.57;;;9.55;;
23680;SDS011;62915;50.832;4.462;2023-10-31T03:49:31;12.40;;;9.68;;
23680;SDS011;62915;50.832;4.462;2023-10-31T03:51:57;12.80;;;9.70;;
23680;SDS011;62915;50.832;4.462;2023-10-31T03:54:23;13.85;;;10.57;;
23680;SDS011;62915;50.832;4.462;2023-10-31T03:56:48;12.90;;;10.23;;
23680;SDS011;62915;50.832;4.462;2023-10-31T03:59:14;10.77;;;9.60;;
23680;SDS011;62915;50.832;4.462;2023-10-31T04:01:40;10.15;;;9.13;;
23680;SDS011;62915;50.832;4.462;2023-10-31T04:04:06;15.75;;;9.63;;
23680;SDS011;62915;50.832;4.462;2023-10-31T04:06:31;16.33;;;10.18;;
23680;SDS011;62915;50.832;4.462;2023-10-31T04:08:57;14.48;;;9.80;;
23680;SDS011;62915;50.832;4.462;2023-10-31T04:11:23;13.50;;;10.35;;
23680;SDS011;62915;50.832;4.462;2023-10-31T04:13:49;12.30;;;9.70;;
23680;SDS011;62915;50.832;4.462;2023-10-31T04:16:14;12.70;;;10.82;;
23680;SDS011;62915;50.832;4.462;2023-10-31T04:18:40;12.60;;;10.43;;
23680;SDS011;62915;50.832;4.462;2023-10-31T04:21:07;13.05;;;10.45;;
23680;SDS011;62915;50.832;4.462;2023-10-31T04:23:33;12.98;;;11.07;;
23680;SDS011;62915;50.832;4.462;2023-10-31T04:25:59;15.82;;;11.55;;
23680;SDS011;62915;50.832;4.462;2023-10-31T04:28:24;12.82;;;10.73;;
23680;SDS011;62915;50.832;4.462;2023-10-31T04:30:50;15.10;;;10.82;;
23680;SDS011;62915;50.832;4.462;2023-10-31T04:33:16;14.52;;;11.20;;
23680;SDS011;62915;50.832;4.462;2023-10-31T04:35:41;13.57;;;10.95;;
23680;SDS011;62915;50.832;4.462;2023-10-31T04:38:07;14.40;;;10.27;;
23680;SDS011;62915;50.832;4.462;2023-10-31T04:40:33;15.73;;;10.95;;
23680;SDS011;62915;50.832;4.462;2023-10-31T04:42:59;14.30;;;11.02;;
23680;SDS011;62915;50.832;4.462;2023-10-31T04:45:25;15.63;;;11.27;;
23680;SDS011;62915;50.832;4.462;2023-10-31T04:47:51;15.55;;;11.70;;
23680;SDS011;62915;50.832;4.462;2023-10-31T04:50:17;15.98;;;12.20;;
23680;SDS011;62915;50.832;4.462;2023-10-31T04:52:42;14.80;;;11.55;;
23680;SDS011;62915;50.832;4.462;2023-10-31T04:55:08;13.55;;;11.27;;
23680;SDS011;62915;50.832;4.462;2023-10-31T04:57:34;15.32;;;12.50;;
23680;SDS011;62915;50.832;4.462;2023-10-31T05:00:00;14.88;;;12.25;;
23680;SDS011;62915;50.832;4.462;2023-10-31T05:02:25;16.80;;;12.57;;
23680;SDS011;62915;50.832;4.462;2023-10-31T05:04:51;17.73;;;12.88;;
23680;SDS011;62915;50.832;4.462;2023-10-31T05:07:17;24.05;;;13.38;;
23680;SDS011;62915;50.832;4.462;2023-10-31T05:09:43;16.95;;;13.55;;
23680;SDS011;62915;50.832;4.462;2023-10-31T05:12:09;18.45;;;13.60;;
23680;SDS011;62915;50.832;4.462;2023-10-31T05:14:35;16.88;;;13.57;;
23680;SDS011;62915;50.832;4.462;2023-10-31T05:17:02;16.33;;;13.23;;
23680;SDS011;62915;50.832;4.462;2023-10-31T05:19:27;16.35;;;12.10;;
23680;SDS011;62915;50.832;4.462;2023-10-31T05:21:53;17.42;;;13.40;;
23680;SDS011;62915;50.832;4.462;2023-10-31T05:24:19;15.90;;;13.70;;
23680;SDS011;62915;50.832;4.462;2023-10-31T05:26:45;16.98;;;13.52;;
23680;SDS011;62915;50.832;4.462;2023-10-31T05:29:11;16.88;;;14.15;;
23680;SDS011;62915;50.832;4.462;2023-10-31T05:31:37;16.00;;;13.23;;
23680;SDS011;62915;50.832;4.462;2023-10-31T05:34:02;16.80;;;13.98;;
23680;SDS011;62915;50.832;4.462;2023-10-31T05:36:31;17.90;;;14.15;;
23680;SDS011;62915;50.832;4.462;2023-10-31T05:38:57;16.55;;;12.77;;
23680;SDS011;62915;50.832;4.462;2023-10-31T05:41:23;14.98;;;12.27;;
23680;SDS011;62915;50.832;4.462;2023-10-31T05:43:49;16.85;;;12.88;;
23680;SDS011;62915;50.832;4.462;2023-10-31T05:46:14;17.77;;;13.32;;
23680;SDS011;62915;50.832;4.462;2023-10-31T05:48:41;18.25;;;13.40;;
23680;SDS011;62915;50.832;4.462;2023-10-31T05:51:18;19.08;;;13.95;;
23680;SDS011;62915;50.832;4.462;2023-10-31T05:53:45;19.45;;;12.90;;
23680;SDS011;62915;50.832;4.462;2023-10-31T05:56:12;17.83;;;13.20;;
23680;SDS011;62915;50.832;4.462;2023-10-31T05:58:39;15.82;;;12.48;;
23680;SDS011;62915;50.832;4.462;2023-10-31T06:01:06;15.75;;;13.10;;
23680;SDS011;62915;50.832;4.462;2023-10-31T06:03:32;18.13;;;13.10;;
23680;SDS011;62915;50.832;4.462;2023-10-31T06:05:58;17.92;;;13.43;;
23680;SDS011;62915;50.832;4.462;2023-10-31T06:08:24;15.35;;;12.95;;
23680;SDS011;62915;50.832;4.462;2023-10-31T06:10:53;19.67;;;13.35;;
23680;SDS011;62915;50.832;4.462;2023-10-31T06:13:19;16.20;;;13.55;;
23680;SDS011;62915;50.832;4.462;2023-10-31T06:15:45;18.50;;;14.35;;
23680;SDS011;62915;50.832;4.462;2023-10-31T06:18:10;17.33;;;12.90;;
23680;SDS011;62915;50.832;4.462;2023-10-31T06:20:36;17.55;;;12.57;;
23680;SDS011;62915;50.832;4.462;2023-10-31T06:23:02;18.17;;;12.00;;
23680;SDS011;62915;50.832;4.462;2023-10-31T06:25:28;13.88;;;11.43;;
23680;SDS011;62915;50.832;4.462;2023-10-31T06:27:55;16.40;;;12.18;;
23680;SDS011;62915;50.832;4.462;2023-10-31T06:30:21;13.85;;;10.98;;
23680;SDS011;62915;50.832;4.462;2023-10-31T06:32:50;13.25;;;10.35;;
23680;SDS011;62915;50.832;4.462;2023-10-31T06:35:19;12.82;;;11.13;;
23680;SDS011;62915;50.832;4.462;2023-10-31T06:37:45;15.05;;;10.55;;
23680;SDS011;62915;50.832;4.462;2023-10-31T06:40:10;15.43;;;10.77;;
23680;SDS011;62915;50.832;4.462;2023-10-31T06:42:36;14.02;;;10.32;;
23680;SDS011;62915;50.832;4.462;2023-10-31T06:45:02;13.50;;;10.32;;
23680;SDS011;62915;50.832;4.462;2023-10-31T06:47:29;13.32;;;10.27;;
23680;SDS011;62915;50.832;4.462;2023-10-31T06:49:55;13.93;;;10.20;;
23680;SDS011;62915;50.832;4.462;2023-10-31T06:52:21;14.27;;;11.20;;
23680;SDS011;62915;50.832;4.462;2023-10-31T06:54:47;15.18;;;11.38;;
23680;SDS011;62915;50.832;4.462;2023-10-31T06:57:14;14.13;;;10.65;;
23680;SDS011;62915;50.832;4.462;2023-10-31T06:59:41;11.95;;;9.63;;
23680;SDS011;62915;50.832;4.462;2023-10-31T07:02:07;15.90;;;9.88;;
23680;SDS011;62915;50.832;4.462;2023-10-31T07:04:33;11.55;;;9.55;;
23680;SDS011;62915;50.832;4.462;2023-10-31T07:06:59;15.95;;;10.05;;
23680;SDS011;62915;50.832;4.462;2023-10-31T07:09:25;12.52;;;9.60;;
23680;SDS011;62915;50.832;4.462;2023-10-31T07:11:51;13.13;;;10.23;;
23680;SDS011;62915;50.832;4.462;2023-10-31T07:14:17;13.63;;;9.52;;
23680;SDS011;62915;50.832;4.462;2023-10-31T07:16:43;14.07;;;9.13;;
23680;SDS011;62915;50.832;4.462;2023-10-31T07:19:12;12.00;;;9.93;;
23680;SDS011;62915;50.832;4.462;2023-10-31T07:21:38;11.90;;;9.40;;
23680;SDS011;62915;50.832;4.462;2023-10-31T07:24:03;14.93;;;9.98;;
23680;SDS011;62915;50.832;4.462;2023-10-31T07:26:30;13.90;;;9.07;;
23680;SDS011;62915;50.832;4.462;2023-10-31T07:34:17;16.33;;;11.52;;
23680;SDS011;62915;50.832;4.462;2023-10-31T07:36:43;13.27;;;10.10;;
23680;SDS011;62915;50.832;4.462;2023-10-31T07:39:09;11.63;;;9.40;;
23680;SDS011;62915;50.832;4.462;2023-10-31T07:41:35;14.48;;;10.38;;
23680;SDS011;62915;50.832;4.462;2023-10-31T07:44:00;13.07;;;10.05;;
23680;SDS011;62915;50.832;4.462;2023-10-31T07:46:26;12.68;;;9.38;;
23680;SDS011;62915;50.832;4.462;2023-10-31T07:48:53;13.43;;;9.95;;
23680;SDS011;62915;50.832;4.462;2023-10-31T07:51:19;12.55;;;9.32;;
23680;SDS011;62915;50.832;4.462;2023-10-31T07:53:44;13.30;;;9.50;;
23680;SDS011;62915;50.832;4.462;2023-10-31T07:56:18;14.20;;;10.30;;
23680;SDS011;62915;50.832;4.462;2023-10-31T07:58:48;11.68;;;8.93;;
23680;SDS011;62915;50.832;4.462;2023-10-31T08:01:18;10.18;;;9.07;;
23680;SDS011;62915;50.832;4.462;2023-10-31T08:03:47;11.80;;;8.75;;
23680;SDS011;62915;50.832;4.462;2023-10-31T08:06:13;10.18;;;8.38;;
23680;SDS011;62915;50.832;4.462;2023-10-31T08:08:39;10.68;;;8.25;;
23680;SDS011;62915;50.832;4.462;2023-10-31T08:11:08;10.88;;;7.72;;
23680;SDS011;62915;50.832;4.462;2023-10-31T08:13:38;10.07;;;7.93;;
23680;SDS011;62915;50.832;4.462;2023-10-31T08:16:05;14.77;;;8.00;;
23680;SDS011;62915;50.832;4.462;2023-10-31T08:18:31;9.70;;;7.35;;
23680;SDS011;62915;50.832;4.462;2023-10-31T08:20:57;9.90;;;6.82;;
23680;SDS011;62915;50.832;4.462;2023-10-31T08:23:23;12.63;;;7.20;;
23680;SDS011;62915;50.832;4.462;2023-10-31T08:25:50;8.88;;;7.05;;
23680;SDS011;62915;50.832;4.462;2023-10-31T08:28:15;9.20;;;7.05;;
23680;SDS011;62915;50.832;4.462;2023-10-31T08:30:41;9.93;;;7.22;;
23680;SDS011;62915;50.832;4.462;2023-10-31T08:33:07;13.48;;;8.27;;
23680;SDS011;62915;50.832;4.462;2023-10-31T08:35:33;13.18;;;7.50;;
23680;SDS011;62915;50.832;4.462;2023-10-31T08:37:59;12.02;;;8.60;;
23680;SDS011;62915;50.832;4.462;2023-10-31T08:40:25;10.13;;;7.97;;
23680;SDS011;62915;50.832;4.462;2023-10-31T08:42:50;10.18;;;7.85;;
23680;SDS011;62915;50.832;4.462;2023-10-31T08:45:16;14.02;;;7.63;;
23680;SDS011;62915;50.832;4.462;2023-10-31T08:47:42;12.77;;;7.90;;
23680;SDS011;62915;50.832;4.462;2023-10-31T08:50:08;16.45;;;7.88;;
23680;SDS011;62915;50.832;4.462;2023-10-31T08:52:34;15.27;;;8.05;;
23680;SDS011;62915;50.832;4.462;2023-10-31T08:55:00;13.73;;;7.43;;
23680;SDS011;62915;50.832;4.462;2023-10-31T08:57:26;11.32;;;7.35;;
23680;SDS011;62915;50.832;4.462;2023-10-31T08:59:51;12.18;;;7.63;;
23680;SDS011;62915;50.832;4.462;2023-10-31T09:02:17;14.18;;;6.95;;
23680;SDS011;62915;50.832;4.462;2023-10-31T09:04:43;13.43;;;6.95;;
23680;SDS011;62915;50.832;4.462;2023-10-31T09:07:08;10.55;;;7.07;;
23680;SDS011;62915;50.832;4.462;2023-10-31T09:09:34;12.88;;;5.80;;
23680;SDS011;62915;50.832;4.462;2023-10-31T09:12:00;13.30;;;5.05;;
23680;SDS011;62915;50.832;4.462;2023-10-31T09:14:26;9.65;;;4.75;;
23680;SDS011;62915;50.832;4.462;2023-10-31T09:16:51;11.05;;;5.13;;
23680;SDS011;62915;50.832;4.462;2023-10-31T09:19:17;6.93;;;4.72;;
23680;SDS011;62915;50.832;4.462;2023-10-31T09:21:43;10.45;;;5.78;;
23680;SDS011;62915;50.832;4.462;2023-10-31T09:24:09;8.07;;;4.93;;
23680;SDS011;62915;50.832;4.462;2023-10-31T09:26:35;12.98;;;5.05;;
23680;SDS011;62915;50.832;4.462;2023-10-31T09:29:00;7.90;;;5.53;;
23680;SDS011;62915;50.832;4.462;2023-10-31T09:31:26;12.32;;;5.15;;
23680;SDS011;62915;50.832;4.462;2023-10-31T09:33:52;12.27;;;4.82;;
23680;SDS011;62915;50.832;4.462;2023-10-31T09:36:19;11.52;;;4.95;;
23680;SDS011;62915;50.832;4.462;2023-10-31T09:38:44;9.82;;;4.80;;
23680;SDS011;62915;50.832;4.462;2023-10-31T09:41:12;10.70;;;4.95;;
23680;SDS011;62915;50.832;4.462;2023-10-31T09:43:38;9.60;;;5.05;;
23680;SDS011;62915;50.832;4.462;2023-10-31T09:46:04;17.15;;;5.22;;
23680;SDS011;62915;50.832;4.462;2023-10-31T09:48:31;10.70;;;5.47;;
23680;SDS011;62915;50.832;4.462;2023-10-31T09:50:57;14.20;;;6.25;;
23680;SDS011;62915;50.832;4.462;2023-10-31T09:53:25;9.23;;;5.72;;
23680;SDS011;62915;50.832;4.462;2023-10-31T09:55:53;10.50;;;6.78;;
23680;SDS011;62915;50.832;4.462;2023-10-31T09:58:19;9.23;;;6.93;;
23680;SDS011;62915;50.832;4.462;2023-10-31T10:00:44;10.48;;;7.53;;
23680;SDS011;62915;50.832;4.462;2023-10-31T10:03:10;10.95;;;6.68;;
23680;SDS011;62915;50.832;4.462;2023-10-31T10:05:36;14.32;;;6.90;;
23680;SDS011;62915;50.832;4.462;2023-10-31T10:08:03;14.75;;;7.65;;
23680;SDS011;62915;50.832;4.462;2023-10-31T10:10:29;14.40;;;7.18;;
23680;SDS011;62915;50.832;4.462;2023-10-31T10:12:56;9.07;;;6.03;;
23680;SDS011;62915;50.832;4.462;2023-10-31T10:15:23;11.02;;;5.97;;
23680;SDS011;62915;50.832;4.462;2023-10-31T10:17:50;15.05;;;7.03;;
23680;SDS011;62915;50.832;4.462;2023-10-31T10:20:16;13.52;;;6.60;;
23680;SDS011;62915;50.832;4.462;2023-10-31T10:22:43;13.00;;;6.80;;
23680;SDS011;62915;50.832;4.462;2023-10-31T10:25:10;13.60;;;6.95;;
23680;SDS011;62915;50.832;4.462;2023-10-31T10:27:41;11.98;;;6.47;;
23680;SDS011;62915;50.832;4.462;2023-10-31T10:30:10;12.48;;;6.82;;
23680;SDS011;62915;50.832;4.462;2023-10-31T10:32:37;9.88;;;6.55;;
23680;SDS011;62915;50.832;4.462;2023-10-31T10:35:03;16.60;;;8.25;;
23680;SDS011;62915;50.832;4.462;2023-10-31T10:37:29;20.65;;;8.40;;
23680;SDS011;62915;50.832;4.462;2023-10-31T10:39:56;20.27;;;7.82;;
23680;SDS011;62915;50.832;4.462;2023-10-31T10:42:37;15.77;;;7.82;;
23680;SDS011;62915;50.832;4.462;2023-10-31T10:45:14;11.65;;;6.97;;
23680;SDS011;62915;50.832;4.462;2023-10-31T10:47:43;17.60;;;7.93;;
23680;SDS011;62915;50.832;4.462;2023-10-31T10:50:11;17.58;;;7.72;;
23680;SDS011;62915;50.832;4.462;2023-10-31T10:55:18;19.70;;;7.68;;
23680;SDS011;62915;50.832;4.462;2023-10-31T10:58:08;13.57;;;7.47;;
23680;SDS011;62915;50.832;4.462;2023-10-31T11:00:46;13.27;;;7.82;;
23680;SDS011;62915;50.832;4.462;2023-10-31T11:03:13;14.70;;;7.47;;
23680;SDS011;62915;50.832;4.462;2023-10-31T11:05:41;21.83;;;8.93;;
23680;SDS011;62915;50.832;4.462;2023-10-31T11:08:07;16.25;;;9.48;;
23680;SDS011;62915;50.832;4.462;2023-10-31T11:10:34;16.23;;;8.48;;
23680;SDS011;62915;50.832;4.462;2023-10-31T11:13:01;17.88;;;8.93;;
23680;SDS011;62915;50.832;4.462;2023-10-31T11:15:27;12.73;;;8.90;;
23680;SDS011;62915;50.832;4.462;2023-10-31T11:17:53;19.52;;;8.93;;
23680;SDS011;62915;50.832;4.462;2023-10-31T11:20:22;16.13;;;9.25;;
23680;SDS011;62915;50.832;4.462;2023-10-31T11:22:48;17.10;;;9.00;;
23680;SDS011;62915;50.832;4.462;2023-10-31T11:25:24;19.00;;;8.90;;
23680;SDS011;62915;50.832;4.462;2023-10-31T11:27:51;17.27;;;8.32;;
23680;SDS011;62915;50.832;4.462;2023-10-31T11:33:00;19.17;;;9.20;;
23680;SDS011;62915;50.832;4.462;2023-10-31T11:35:29;14.75;;;8.63;;
23680;SDS011;62915;50.832;4.462;2023-10-31T11:38:02;18.33;;;8.50;;
23680;SDS011;62915;50.832;4.462;2023-10-31T11:40:31;12.90;;;8.05;;
23680;SDS011;62915;50.832;4.462;2023-10-31T11:42:57;17.20;;;7.78;;
23680;SDS011;62915;50.832;4.462;2023-10-31T11:45:27;13.88;;;8.52;;
23680;SDS011;62915;50.832;4.462;2023-10-31T11:48:14;11.48;;;7.55;;
23680;SDS011;62915;50.832;4.462;2023-10-31T11:50:40;17.10;;;8.05;;
23680;SDS011;62915;50.832;4.462;2023-10-31T11:55:36;14.15;;;8.35;;
23680;SDS011;62915;50.832;4.462;2023-10-31T11:58:38;12.43;;;7.25;;
23680;SDS011;62915;50.832;4.462;2023-10-31T12:01:07;17.15;;;8.20;;
23680;SDS011;62915;50.832;4.462;2023-10-31T12:03:38;13.57;;;6.88;;
23680;SDS011;62915;50.832;4.462;2023-10-31T12:06:05;12.13;;;7.15;;
23680;SDS011;62915;50.832;4.462;2023-10-31T12:13:36;13.63;;;6.17;;
23680;SDS011;62915;50.832;4.462;2023-10-31T12:16:03;13.23;;;5.97;;
23680;SDS011;62915;50.832;4.462;2023-10-31T12:18:33;9.75;;;5.68;;
23680;SDS011;62915;50.832;4.462;2023-10-31T12:21:00;14.40;;;5.53;;
23680;SDS011;62915;50.832;4.462;2023-10-31T12:23:28;7.80;;;5.60;;
23680;SDS011;62915;50.832;4.462;2023-10-31T12:25:54;10.52;;;5.22;;
23680;SDS011;62915;50.832;4.462;2023-10-31T12:28:23;10.30;;;5.78;;
23680;SDS011;62915;50.832;4.462;2023-10-31T12:30:50;8.63;;;5.95;;
23680;SDS011;62915;50.832;4.462;2023-10-31T12:33:19;11.80;;;5.70;;
23680;SDS011;62915;50.832;4.462;2023-10-31T12:35:48;10.65;;;5.45;;
23680;SDS011;62915;50.832;4.462;2023-10-31T12:38:14;10.52;;;5.00;;
23680;SDS011;62915;50.832;4.462;2023-10-31T12:40:41;9.32;;;5.10;;
23680;SDS011;62915;50.832;4.462;2023-10-31T12:43:09;9.52;;;4.88;;
23680;SDS011;62915;50.832;4.462;2023-10-31T12:45:35;6.72;;;4.60;;
23680;SDS011;62915;50.832;4.462;2023-10-31T12:48:02;6.97;;;4.30;;
23680;SDS011;62915;50.832;4.462;2023-10-31T12:50:30;6.07;;;4.13;;
23680;SDS011;62915;50.832;4.462;2023-10-31T12:52:56;7.47;;;3.90;;
23680;SDS011;62915;50.832;4.462;2023-10-31T12:55:24;6.22;;;3.53;;
23680;SDS011;62915;50.832;4.462;2023-10-31T12:57:52;7.10;;;3.80;;
23680;SDS011;62915;50.832;4.462;2023-10-31T13:00:19;5.22;;;3.45;;
23680;SDS011;62915;50.832;4.462;2023-10-31T13:02:58;6.20;;;3.40;;
23680;SDS011;62915;50.832;4.462;2023-10-31T13:05:29;7.45;;;3.30;;
23680;SDS011;62915;50.832;4.462;2023-10-31T13:07:57;5.50;;;2.95;;
23680;SDS011;62915;50.832;4.462;2023-10-31T13:10:25;5.93;;;3.50;;
23680;SDS011;62915;50.832;4.462;2023-10-31T13:12:52;6.60;;;3.42;;
23680;SDS011;62915;50.832;4.462;2023-10-31T13:15:20;4.78;;;2.78;;
23680;SDS011;62915;50.832;4.462;2023-10-31T13:17:53;5.05;;;3.20;;
23680;SDS011;62915;50.832;4.462;2023-10-31T13:20:21;4.35;;;3.00;;
23680;SDS011;62915;50.832;4.462;2023-10-31T13:22:47;6.10;;;3.55;;
23680;SDS011;62915;50.832;4.462;2023-10-31T13:25:14;7.25;;;3.08;;
23680;SDS011;62915;50.832;4.462;2023-10-31T13:27:43;5.80;;;3.30;;
23680;SDS011;62915;50.832;4.462;2023-10-31T13:30:10;5.88;;;3.35;;
23680;SDS011;62915;50.832;4.462;2023-10-31T13:32:37;4.97;;;3.40;;
23680;SDS011;62915;50.832;4.462;2023-10-31T13:35:04;5.72;;;3.65;;
23680;SDS011;62915;50.832;4.462;2023-10-31T13:37:30;6.10;;;4.57;;
23680;SDS011;62915;50.832;4.462;2023-10-31T13:39:56;9.57;;;5.32;;
23680;SDS011;62915;50.832;4.462;2023-10-31T13:42:22;8.75;;;5.90;;
23680;SDS011;62915;50.832;4.462;2023-10-31T13:44:48;13.32;;;6.15;;
23680;SDS011;62915;50.832;4.462;2023-10-31T13:47:14;12.77;;;7.32;;
23680;SDS011;62915;50.832;4.462;2023-10-31T13:49:41;12.32;;;8.30;;
23680;SDS011;62915;50.832;4.462;2023-10-31T13:52:08;13.45;;;8.93;;
23680;SDS011;62915;50.832;4.462;2023-10-31T13:54:34;13.35;;;9.85;;
23680;SDS011;62915;50.832;4.462;2023-10-31T13:57:01;11.10;;;9.23;;
23680;SDS011;62915;50.832;4.462;2023-10-31T13:59:27;16.15;;;10.50;;
23680;SDS011;62915;50.832;4.462;2023-10-31T14:01:53;12.93;;;10.13;;
23680;SDS011;62915;50.832;4.462;2023-10-31T14:04:19;16.55;;;10.40;;
23680;SDS011;62915;50.832;4.462;2023-10-31T14:06:45;15.40;;;9.52;;
23680;SDS011;62915;50.832;4.462;2023-10-31T14:09:11;13.80;;;9.63;;
23680;SDS011;62915;50.832;4.462;2023-10-31T14:11:41;17.08;;;10.13;;
23680;SDS011;62915;50.832;4.462;2023-10-31T14:14:07;13.00;;;9.23;;
23680;SDS011;62915;50.832;4.462;2023-10-31T14:16:37;17.10;;;8.77;;
23680;SDS011;62915;50.832;4.462;2023-10-31T14:19:06;16.10;;;9.32;;
23680;SDS011;62915;50.832;4.462;2023-10-31T14:21:32;10.38;;;8.15;;
23680;SDS011;62915;50.832;4.462;2023-10-31T14:23:59;13.05;;;7.95;;
23680;SDS011;62915;50.832;4.462;2023-10-31T14:26:26;13.02;;;7.45;;
23680;SDS011;62915;50.832;4.462;2023-10-31T14:28:53;13.77;;;7.60;;
23680;SDS011;62915;50.832;4.462;2023-10-31T14:31:20;10.05;;;7.63;;
23680;SDS011;62915;50.832;4.462;2023-10-31T14:33:46;12.13;;;6.70;;
23680;SDS011;62915;50.832;4.462;2023-10-31T14:36:12;9.65;;;7.00;;
23680;SDS011;62915;50.832;4.462;2023-10-31T14:38:38;11.98;;;7.28;;
23680;SDS011;62915;50.832;4.462;2023-10-31T14:41:05;15.65;;;7.50;;
23680;SDS011;62915;50.832;4.462;2023-10-31T14:43:31;10.50;;;7.38;;
23680;SDS011;62915;50.832;4.462;2023-10-31T14:45:57;8.02;;;6.72;;
23680;SDS011;62915;50.832;4.462;2023-10-31T14:48:23;11.90;;;7.80;;
23680;SDS011;62915;50.832;4.462;2023-10-31T14:50:49;11.38;;;8.57;;